sensor_id;sensor_type;location;lat;lon;timestamp;pressure;altitude;pressure_sealevel;temperature;humidity
78299;BME280;67556;55.656;12.590;2023-03-15T00:01:39;100072.19;;;1.90;71.76
78299;BME280;67556;55.656;12.590;2023-03-15T00:04:06;100069.31;;;1.86;71.19
78299;BME280;67556;55.656;12.590;2023-03-15T00:06:33;100074.06;;;1.93;71.21
78299;BME280;67556;55.656;12.590;2023-03-15T00:09:00;100072.50;;;2.11;70.16
78299;BME280;67556;55.656;12.590;2023-03-15T00:11:28;100087.06;;;2.06;70.11
78299;BME280;67556;55.656;12.590;2023-03-15T00:13:55;100098.78;;;2.11;70.33
78299;BME280;67556;55.656;12.590;2023-03-15T00:16:22;100095.66;;;2.18;70.21
78299;BME280;67556;55.656;12.590;2023-03-15T00:18:51;100100.06;;;2.03;70.22
78299;BME280;67556;55.656;12.590;2023-03-15T00:21:19;100105.41;;;1.90;70.88
78299;BME280;67556;55.656;12.590;2023-03-15T00:23:46;100110.03;;;1.94;70.38
78299;BME280;67556;55.656;12.590;2023-03-15T00:26:14;100119.81;;;1.82;70.07
78299;BME280;67556;55.656;12.590;2023-03-15T00:28:40;100123.59;;;1.72;70.42
78299;BME280;67556;55.656;12.590;2023-03-15T00:31:12;100137.38;;;1.83;69.78
78299;BME280;67556;55.656;12.590;2023-03-15T00:33:39;100135.38;;;1.79;70.33
78299;BME280;67556;55.656;12.590;2023-03-15T00:36:07;100142.88;;;1.72;70.45
78299;BME280;67556;55.656;12.590;2023-03-15T00:38:35;100142.63;;;1.83;69.57
78299;BME280;67556;55.656;12.590;2023-03-15T00:41:04;100126.69;;;1.65;69.24
78299;BME280;67556;55.656;12.590;2023-03-15T00:43:32;100164.72;;;1.86;69.07
78299;BME280;67556;55.656;12.590;2023-03-15T00:45:59;100157.91;;;1.75;69.08
78299;BME280;67556;55.656;12.590;2023-03-15T00:48:26;100166.59;;;1.89;68.45
78299;BME280;67556;55.656;12.590;2023-03-15T00:51:00;100171.75;;;1.72;69.09
78299;BME280;67556;55.656;12.590;2023-03-15T00:53:27;100163.81;;;1.86;68.20
78299;BME280;67556;55.656;12.590;2023-03-15T00:55:53;100176.13;;;1.87;67.95
78299;BME280;67556;55.656;12.590;2023-03-15T00:58:20;100185.81;;;1.88;67.92
78299;BME280;67556;55.656;12.590;2023-03-15T01:00:47;100187.34;;;1.84;67.47
78299;BME280;67556;55.656;12.590;2023-03-15T01:03:14;100186.00;;;1.91;67.99
78299;BME280;67556;55.656;12.590;2023-03-15T01:05:40;100199.38;;;1.81;67.66
78299;BME280;67556;55.656;12.590;2023-03-15T01:08:07;100203.13;;;1.99;67.58
78299;BME280;67556;55.656;12.590;2023-03-15T01:10:33;100207.81;;;1.90;67.16
78299;BME280;67556;55.656;12.590;2023-03-15T01:13:00;100206.06;;;1.75;67.39
78299;BME280;67556;55.656;12.590;2023-03-15T01:15:27;100220.59;;;1.56;68.38
78299;BME280;67556;55.656;12.590;2023-03-15T01:17:55;100214.50;;;1.70;67.84
78299;BME280;67556;55.656;12.590;2023-03-15T01:20:22;100214.09;;;1.49;68.05
78299;BME280;67556;55.656;12.590;2023-03-15T01:22:48;100220.25;;;1.49;68.23
78299;BME280;67556;55.656;12.590;2023-03-15T01:25:14;100229.94;;;1.22;69.10
78299;BME280;67556;55.656;12.590;2023-03-15T01:27:41;100228.72;;;1.31;68.48
78299;BME280;67556;55.656;12.590;2023-03-15T01:30:08;100229.00;;;1.35;68.70
78299;BME280;67556;55.656;12.590;2023-03-15T01:32:35;100250.81;;;1.21;69.25
78299;BME280;67556;55.656;12.590;2023-03-15T01:35:03;100246.06;;;1.29;69.33
78299;BME280;67556;55.656;12.590;2023-03-15T01:37:30;100251.81;;;1.23;69.79
78299;BME280;67556;55.656;12.590;2023-03-15T01:39:59;100259.13;;;1.14;70.13
78299;BME280;67556;55.656;12.590;2023-03-15T01:42:26;100259.97;;;1.28;69.72
78299;BME280;67556;55.656;12.590;2023-03-15T01:44:54;100265.22;;;1.28;69.54
78299;BME280;67556;55.656;12.590;2023-03-15T01:47:22;100264.25;;;1.12;69.84
78299;BME280;67556;55.656;12.590;2023-03-15T01:49:54;100268.84;;;1.30;68.78
78299;BME280;67556;55.656;12.590;2023-03-15T01:52:25;100271.81;;;1.08;69.27
78299;BME280;67556;55.656;12.590;2023-03-15T01:54:56;100274.25;;;0.91;70.21
78299;BME280;67556;55.656;12.590;2023-03-15T01:57:26;100279.91;;;0.84;69.47
78299;BME280;67556;55.656;12.590;2023-03-15T01:59:58;100280.63;;;0.82;69.71
78299;BME280;67556;55.656;12.590;2023-03-15T02:02:27;100265.28;;;0.88;69.18
78299;BME280;67556;55.656;12.590;2023-03-15T02:04:58;100273.16;;;0.88;69.23
78299;BME280;67556;55.656;12.590;2023-03-15T02:07:30;100284.06;;;0.94;68.76
78299;BME280;67556;55.656;12.590;2023-03-15T02:10:01;100287.88;;;0.86;68.71
78299;BME280;67556;55.656;12.590;2023-03-15T02:12:31;100299.56;;;0.91;68.33
78299;BME280;67556;55.656;12.590;2023-03-15T02:14:59;100301.91;;;0.86;68.19
78299;BME280;67556;55.656;12.590;2023-03-15T02:17:33;100296.66;;;0.86;68.14
78299;BME280;67556;55.656;12.590;2023-03-15T02:20:07;100306.84;;;0.95;67.42
78299;BME280;67556;55.656;12.590;2023-03-15T02:22:41;100301.38;;;1.18;67.07
78299;BME280;67556;55.656;12.590;2023-03-15T02:25:17;100319.88;;;1.35;66.67
78299;BME280;67556;55.656;12.590;2023-03-15T02:27:48;100320.63;;;1.19;67.03
78299;BME280;67556;55.656;12.590;2023-03-15T02:30:17;100321.25;;;1.15;67.42
78299;BME280;67556;55.656;12.590;2023-03-15T02:32:43;100319.53;;;1.02;67.62
78299;BME280;67556;55.656;12.590;2023-03-15T02:35:10;100312.59;;;0.89;68.16
78299;BME280;67556;55.656;12.590;2023-03-15T02:37:36;100331.31;;;1.09;67.28
78299;BME280;67556;55.656;12.590;2023-03-15T02:40:12;100330.03;;;1.02;68.23
78299;BME280;67556;55.656;12.590;2023-03-15T02:42:42;100332.53;;;1.00;68.28
78299;BME280;67556;55.656;12.590;2023-03-15T02:45:10;100340.00;;;1.08;68.90
78299;BME280;67556;55.656;12.590;2023-03-15T02:47:37;100338.22;;;0.93;69.26
78299;BME280;67556;55.656;12.590;2023-03-15T02:50:06;100343.13;;;1.15;68.99
78299;BME280;67556;55.656;12.590;2023-03-15T02:52:32;100342.53;;;1.19;69.05
78299;BME280;67556;55.656;12.590;2023-03-15T02:54:59;100342.41;;;1.18;69.13
78299;BME280;67556;55.656;12.590;2023-03-15T02:57:26;100329.00;;;1.13;69.70
78299;BME280;67556;55.656;12.590;2023-03-15T02:59:53;100330.22;;;1.18;69.41
78299;BME280;67556;55.656;12.590;2023-03-15T03:02:21;100332.94;;;1.20;69.19
78299;BME280;67556;55.656;12.590;2023-03-15T03:04:48;100350.19;;;1.03;69.83
78299;BME280;67556;55.656;12.590;2023-03-15T03:07:18;100355.75;;;1.08;69.26
78299;BME280;67556;55.656;12.590;2023-03-15T03:09:44;100373.88;;;1.18;68.90
78299;BME280;67556;55.656;12.590;2023-03-15T03:12:20;100367.53;;;1.01;69.26
78299;BME280;67556;55.656;12.590;2023-03-15T03:14:48;100370.66;;;0.95;69.73
78299;BME280;67556;55.656;12.590;2023-03-15T03:17:14;100375.59;;;0.91;69.19
78299;BME280;67556;55.656;12.590;2023-03-15T03:19:42;100365.72;;;0.87;69.46
78299;BME280;67556;55.656;12.590;2023-03-15T03:22:08;100374.28;;;0.84;69.44
78299;BME280;67556;55.656;12.590;2023-03-15T03:24:37;100383.75;;;0.82;69.61
78299;BME280;67556;55.656;12.590;2023-03-15T03:27:04;100382.66;;;0.79;69.00
78299;BME280;67556;55.656;12.590;2023-03-15T03:29:30;100381.06;;;0.94;69.06
78299;BME280;67556;55.656;12.590;2023-03-15T03:31:57;100376.59;;;0.80;69.17
78299;BME280;67556;55.656;12.590;2023-03-15T03:34:24;100383.16;;;0.86;68.86
78299;BME280;67556;55.656;12.590;2023-03-15T03:36:52;100394.94;;;0.80;68.67
78299;BME280;67556;55.656;12.590;2023-03-15T03:39:18;100395.69;;;1.04;67.94
78299;BME280;67556;55.656;12.590;2023-03-15T03:41:45;100396.97;;;0.84;68.17
78299;BME280;67556;55.656;12.590;2023-03-15T03:44:11;100413.50;;;0.83;67.97
78299;BME280;67556;55.656;12.590;2023-03-15T03:46:38;100413.78;;;0.74;67.64
78299;BME280;67556;55.656;12.590;2023-03-15T03:49:04;100417.31;;;0.74;67.57
78299;BME280;67556;55.656;12.590;2023-03-15T03:51:30;100426.28;;;0.65;68.44
78299;BME280;67556;55.656;12.590;2023-03-15T03:54:00;100422.44;;;0.60;68.15
78299;BME280;67556;55.656;12.590;2023-03-15T03:56:27;100418.69;;;0.56;68.30
78299;BME280;67556;55.656;12.590;2023-03-15T03:58:53;100428.69;;;0.62;67.58
78299;BME280;67556;55.656;12.590;2023-03-15T04:01:20;100419.72;;;0.71;66.90
78299;BME280;67556;55.656;12.590;2023-03-15T04:03:47;100410.41;;;0.50;67.23
78299;BME280;67556;55.656;12.590;2023-03-15T04:06:13;100446.72;;;0.57;67.11
78299;BME280;67556;55.656;12.590;2023-03-15T04:08:40;100438.16;;;0.60;66.81
78299;BME280;67556;55.656;12.590;2023-03-15T04:11:08;100455.78;;;0.62;67.29
78299;BME280;67556;55.656;12.590;2023-03-15T04:13:34;100452.28;;;0.62;66.51
78299;BME280;67556;55.656;12.590;2023-03-15T04:16:02;100456.19;;;0.55;66.75
78299;BME280;67556;55.656;12.590;2023-03-15T04:18:30;100459.41;;;0.51;66.62
78299;BME280;67556;55.656;12.590;2023-03-15T04:20:57;100459.59;;;0.54;66.24
78299;BME280;67556;55.656;12.590;2023-03-15T04:23:23;100456.97;;;0.54;66.64
78299;BME280;67556;55.656;12.590;2023-03-15T04:25:51;100459.31;;;0.63;66.18
78299;BME280;67556;55.656;12.590;2023-03-15T04:28:21;100470.97;;;0.55;66.95
78299;BME280;67556;55.656;12.590;2023-03-15T04:30:48;100460.84;;;0.59;66.69
78299;BME280;67556;55.656;12.590;2023-03-15T04:33:15;100468.00;;;0.62;66.08
78299;BME280;67556;55.656;12.590;2023-03-15T04:35:43;100470.78;;;0.52;66.66
78299;BME280;67556;55.656;12.590;2023-03-15T04:38:10;100481.91;;;0.61;66.46
78299;BME280;67556;55.656;12.590;2023-03-15T04:40:36;100481.69;;;0.58;67.51
78299;BME280;67556;55.656;12.590;2023-03-15T04:43:04;100453.41;;;0.65;68.25
78299;BME280;67556;55.656;12.590;2023-03-15T04:45:33;100480.34;;;0.76;67.85
78299;BME280;67556;55.656;12.590;2023-03-15T04:48:00;100496.00;;;0.63;68.38
78299;BME280;67556;55.656;12.590;2023-03-15T04:50:29;100486.19;;;0.47;69.62
78299;BME280;67556;55.656;12.590;2023-03-15T04:52:56;100491.25;;;0.57;69.88
78299;BME280;67556;55.656;12.590;2023-03-15T04:55:23;100485.59;;;0.51;70.10
78299;BME280;67556;55.656;12.590;2023-03-15T04:57:50;100481.59;;;0.56;70.08
78299;BME280;67556;55.656;12.590;2023-03-15T05:00:17;100502.59;;;0.69;70.65
78299;BME280;67556;55.656;12.590;2023-03-15T05:02:45;100498.81;;;0.53;70.42
78299;BME280;67556;55.656;12.590;2023-03-15T05:05:19;100498.81;;;0.53;70.42
78299;BME280;67556;55.656;12.590;2023-03-15T05:07:48;100500.78;;;0.68;70.46
78299;BME280;67556;55.656;12.590;2023-03-15T05:10:16;100505.97;;;0.55;71.34
78299;BME280;67556;55.656;12.590;2023-03-15T05:12:42;100512.00;;;0.54;71.71
78299;BME280;67556;55.656;12.590;2023-03-15T05:15:09;100504.91;;;0.65;70.94
78299;BME280;67556;55.656;12.590;2023-03-15T05:17:37;100516.47;;;0.55;71.78
78299;BME280;67556;55.656;12.590;2023-03-15T05:20:06;100516.00;;;0.49;71.68
78299;BME280;67556;55.656;12.590;2023-03-15T05:22:35;100530.78;;;0.60;71.52
78299;BME280;67556;55.656;12.590;2023-03-15T05:25:02;100538.66;;;0.60;72.08
78299;BME280;67556;55.656;12.590;2023-03-15T05:27:29;100534.22;;;0.59;71.97
78299;BME280;67556;55.656;12.590;2023-03-15T05:29:56;100532.53;;;0.48;72.49
78299;BME280;67556;55.656;12.590;2023-03-15T05:32:23;100541.03;;;0.57;71.63
78299;BME280;67556;55.656;12.590;2023-03-15T05:34:51;100550.06;;;0.49;71.67
78299;BME280;67556;55.656;12.590;2023-03-15T05:37:20;100544.25;;;0.53;71.34
78299;BME280;67556;55.656;12.590;2023-03-15T05:39:46;100553.56;;;0.61;72.01
78299;BME280;67556;55.656;12.590;2023-03-15T05:42:13;100558.75;;;0.48;72.21
78299;BME280;67556;55.656;12.590;2023-03-15T05:44:39;100551.88;;;0.50;72.30
78299;BME280;67556;55.656;12.590;2023-03-15T05:47:06;100553.06;;;0.42;72.47
78299;BME280;67556;55.656;12.590;2023-03-15T05:49:33;100548.91;;;0.57;71.67
78299;BME280;67556;55.656;12.590;2023-03-15T05:51:59;100555.63;;;0.54;71.22
78299;BME280;67556;55.656;12.590;2023-03-15T05:54:28;100549.72;;;0.56;70.67
78299;BME280;67556;55.656;12.590;2023-03-15T05:56:54;100560.63;;;0.62;70.53
78299;BME280;67556;55.656;12.590;2023-03-15T05:59:21;100562.00;;;0.57;70.87
78299;BME280;67556;55.656;12.590;2023-03-15T06:01:47;100572.13;;;0.64;71.12
78299;BME280;67556;55.656;12.590;2023-03-15T06:04:14;100569.59;;;0.66;70.83
78299;BME280;67556;55.656;12.590;2023-03-15T06:06:40;100577.69;;;0.69;70.76
78299;BME280;67556;55.656;12.590;2023-03-15T06:09:06;100596.38;;;0.73;70.49
78299;BME280;67556;55.656;12.590;2023-03-15T06:11:34;100596.72;;;0.66;71.44
78299;BME280;67556;55.656;12.590;2023-03-15T06:14:01;100589.09;;;0.94;69.89
78299;BME280;67556;55.656;12.590;2023-03-15T06:16:27;100598.44;;;1.16;69.21
78299;BME280;67556;55.656;12.590;2023-03-15T06:18:53;100597.63;;;1.17;69.15
78299;BME280;67556;55.656;12.590;2023-03-15T06:21:20;100604.44;;;1.27;68.58
78299;BME280;67556;55.656;12.590;2023-03-15T06:23:46;100604.22;;;0.98;69.74
78299;BME280;67556;55.656;12.590;2023-03-15T06:26:13;100620.09;;;1.13;69.40
78299;BME280;67556;55.656;12.590;2023-03-15T06:28:41;100621.22;;;0.92;70.10
78299;BME280;67556;55.656;12.590;2023-03-15T06:31:08;100620.69;;;1.09;69.13
78299;BME280;67556;55.656;12.590;2023-03-15T06:33:35;100628.38;;;1.06;69.33
78299;BME280;67556;55.656;12.590;2023-03-15T06:36:03;100629.06;;;1.04;69.58
78299;BME280;67556;55.656;12.590;2023-03-15T06:38:30;100632.84;;;0.95;70.31
78299;BME280;67556;55.656;12.590;2023-03-15T06:40:56;100647.88;;;1.10;69.90
78299;BME280;67556;55.656;12.590;2023-03-15T06:43:23;100646.50;;;1.03;69.89
78299;BME280;67556;55.656;12.590;2023-03-15T06:45:51;100631.28;;;0.97;69.72
78299;BME280;67556;55.656;12.590;2023-03-15T06:48:20;100657.22;;;1.06;69.86
78299;BME280;67556;55.656;12.590;2023-03-15T06:50:46;100663.78;;;1.13;69.51
78299;BME280;67556;55.656;12.590;2023-03-15T06:53:13;100669.47;;;1.19;68.99
78299;BME280;67556;55.656;12.590;2023-03-15T06:55:39;100675.50;;;1.18;69.23
78299;BME280;67556;55.656;12.590;2023-03-15T06:58:06;100665.38;;;1.22;68.87
78299;BME280;67556;55.656;12.590;2023-03-15T07:00:32;100673.81;;;1.18;69.23
78299;BME280;67556;55.656;12.590;2023-03-15T07:03:01;100676.03;;;1.25;68.79
78299;BME280;67556;55.656;12.590;2023-03-15T07:05:28;100684.78;;;1.38;68.42
78299;BME280;67556;55.656;12.590;2023-03-15T07:07:54;100688.56;;;1.30;68.61
78299;BME280;67556;55.656;12.590;2023-03-15T07:10:21;100685.38;;;1.34;68.76
78299;BME280;67556;55.656;12.590;2023-03-15T07:12:47;100692.56;;;1.36;69.01
78299;BME280;67556;55.656;12.590;2023-03-15T07:15:14;100689.16;;;1.50;68.70
78299;BME280;67556;55.656;12.590;2023-03-15T07:17:40;100693.00;;;1.56;68.26
78299;BME280;67556;55.656;12.590;2023-03-15T07:20:09;100714.94;;;1.56;68.45
78299;BME280;67556;55.656;12.590;2023-03-15T07:22:37;100711.56;;;1.45;68.47
78299;BME280;67556;55.656;12.590;2023-03-15T07:25:04;100693.50;;;1.50;68.24
78299;BME280;67556;55.656;12.590;2023-03-15T07:27:31;100708.06;;;1.58;67.77
78299;BME280;67556;55.656;12.590;2023-03-15T07:29:59;100716.41;;;1.78;67.29
78299;BME280;67556;55.656;12.590;2023-03-15T07:32:25;100717.44;;;1.93;67.23
78299;BME280;67556;55.656;12.590;2023-03-15T07:34:52;100720.88;;;1.92;67.10
78299;BME280;67556;55.656;12.590;2023-03-15T07:37:25;100722.75;;;1.81;67.84
78299;BME280;67556;55.656;12.590;2023-03-15T07:39:52;100735.50;;;1.88;66.95
78299;BME280;67556;55.656;12.590;2023-03-15T07:42:18;100731.78;;;1.98;66.91
78299;BME280;67556;55.656;12.590;2023-03-15T07:44:44;100734.31;;;1.96;65.85
78299;BME280;67556;55.656;12.590;2023-03-15T07:47:11;100739.78;;;1.99;65.86
78299;BME280;67556;55.656;12.590;2023-03-15T07:49:37;100739.72;;;2.24;65.09
78299;BME280;67556;55.656;12.590;2023-03-15T07:52:04;100749.91;;;2.07;65.12
78299;BME280;67556;55.656;12.590;2023-03-15T07:54:32;100740.31;;;2.07;65.86
78299;BME280;67556;55.656;12.590;2023-03-15T07:56:58;100740.63;;;2.12;65.49
78299;BME280;67556;55.656;12.590;2023-03-15T07:59:25;100757.00;;;2.21;64.76
78299;BME280;67556;55.656;12.590;2023-03-15T08:01:52;100771.34;;;2.26;65.29
78299;BME280;67556;55.656;12.590;2023-03-15T08:04:19;100755.81;;;2.29;65.49
78299;BME280;67556;55.656;12.590;2023-03-15T08:06:45;100752.19;;;2.40;65.05
78299;BME280;67556;55.656;12.590;2023-03-15T08:09:11;100767.72;;;2.24;65.35
78299;BME280;67556;55.656;12.590;2023-03-15T08:11:39;100761.97;;;2.30;65.21
78299;BME280;67556;55.656;12.590;2023-03-15T08:14:05;100773.16;;;2.27;65.49
78299;BME280;67556;55.656;12.590;2023-03-15T08:16:32;100771.88;;;2.34;65.07
78299;BME280;67556;55.656;12.590;2023-03-15T08:18:58;100760.66;;;2.36;65.15
78299;BME280;67556;55.656;12.590;2023-03-15T08:21:24;100763.59;;;2.41;65.22
78299;BME280;67556;55.656;12.590;2023-03-15T08:23:51;100767.81;;;2.39;64.93
78299;BME280;67556;55.656;12.590;2023-03-15T08:26:17;100772.91;;;2.62;64.43
78299;BME280;67556;55.656;12.590;2023-03-15T08:28:45;100790.06;;;2.44;64.73
78299;BME280;67556;55.656;12.590;2023-03-15T08:31:11;100787.88;;;2.50;65.07
78299;BME280;67556;55.656;12.590;2023-03-15T08:33:38;100805.16;;;2.60;64.09
78299;BME280;67556;55.656;12.590;2023-03-15T08:36:05;100795.38;;;2.57;64.80
78299;BME280;67556;55.656;12.590;2023-03-15T08:38:32;100800.63;;;2.84;64.45
78299;BME280;67556;55.656;12.590;2023-03-15T08:40:58;100800.41;;;2.81;63.74
78299;BME280;67556;55.656;12.590;2023-03-15T08:43:25;100804.97;;;2.70;64.64
78299;BME280;67556;55.656;12.590;2023-03-15T08:45:52;100810.72;;;2.78;64.39
78299;BME280;67556;55.656;12.590;2023-03-15T08:48:19;100804.06;;;2.96;63.69
78299;BME280;67556;55.656;12.590;2023-03-15T08:50:45;100812.44;;;2.90;62.92
78299;BME280;67556;55.656;12.590;2023-03-15T08:53:12;100811.22;;;2.85;62.95
78299;BME280;67556;55.656;12.590;2023-03-15T08:55:38;100807.47;;;2.95;62.20
78299;BME280;67556;55.656;12.590;2023-03-15T08:58:04;100810.59;;;3.16;61.82
78299;BME280;67556;55.656;12.590;2023-03-15T09:00:31;100814.13;;;3.03;62.23
78299;BME280;67556;55.656;12.590;2023-03-15T09:02:59;100822.44;;;3.09;62.52
78299;BME280;67556;55.656;12.590;2023-03-15T09:05:25;100817.44;;;3.40;61.99
78299;BME280;67556;55.656;12.590;2023-03-15T09:07:52;100814.22;;;3.31;60.22
78299;BME280;67556;55.656;12.590;2023-03-15T09:10:20;100840.03;;;3.23;60.44
78299;BME280;67556;55.656;12.590;2023-03-15T09:12:49;100825.16;;;3.24;59.77
78299;BME280;67556;55.656;12.590;2023-03-15T09:15:17;100833.53;;;3.32;60.67
78299;BME280;67556;55.656;12.590;2023-03-15T09:17:44;100834.34;;;3.44;60.13
78299;BME280;67556;55.656;12.590;2023-03-15T09:20:12;100840.06;;;3.65;58.79
78299;BME280;67556;55.656;12.590;2023-03-15T09:22:40;100836.72;;;3.67;57.68
78299;BME280;67556;55.656;12.590;2023-03-15T09:25:08;100836.72;;;3.67;56.50
78299;BME280;67556;55.656;12.590;2023-03-15T09:27:35;100837.38;;;3.78;55.84
78299;BME280;67556;55.656;12.590;2023-03-15T09:30:02;100842.19;;;3.57;56.86
78299;BME280;67556;55.656;12.590;2023-03-15T09:32:29;100846.63;;;3.71;56.64
78299;BME280;67556;55.656;12.590;2023-03-15T09:35:00;100860.25;;;3.51;57.03
78299;BME280;67556;55.656;12.590;2023-03-15T09:37:29;100855.31;;;3.70;57.01
78299;BME280;67556;55.656;12.590;2023-03-15T09:39:56;100861.03;;;3.63;57.05
78299;BME280;67556;55.656;12.590;2023-03-15T09:42:27;100865.56;;;3.66;57.28
78299;BME280;67556;55.656;12.590;2023-03-15T09:45:01;100862.59;;;3.74;56.59
78299;BME280;67556;55.656;12.590;2023-03-15T09:47:37;100879.38;;;3.48;57.32
78299;BME280;67556;55.656;12.590;2023-03-15T09:50:13;100875.44;;;3.55;57.57
78299;BME280;67556;55.656;12.590;2023-03-15T09:52:47;100875.34;;;3.82;56.89
78299;BME280;67556;55.656;12.590;2023-03-15T09:55:19;100876.72;;;3.62;56.20
78299;BME280;67556;55.656;12.590;2023-03-15T09:57:49;100867.59;;;3.70;56.55
78299;BME280;67556;55.656;12.590;2023-03-15T10:00:19;100872.44;;;3.77;56.25
78299;BME280;67556;55.656;12.590;2023-03-15T10:02:54;100896.25;;;3.65;56.48
78299;BME280;67556;55.656;12.590;2023-03-15T10:05:31;100898.56;;;3.74;55.20
78299;BME280;67556;55.656;12.590;2023-03-15T10:08:00;100896.44;;;3.82;55.20
78299;BME280;67556;55.656;12.590;2023-03-15T10:10:31;100900.34;;;3.60;57.06
78299;BME280;67556;55.656;12.590;2023-03-15T10:13:09;100892.97;;;3.83;55.61
78299;BME280;67556;55.656;12.590;2023-03-15T10:15:43;100905.06;;;3.66;55.35
78299;BME280;67556;55.656;12.590;2023-03-15T10:18:31;100889.56;;;3.84;55.72
78299;BME280;67556;55.656;12.590;2023-03-15T10:21:03;100897.59;;;3.72;55.87
78299;BME280;67556;55.656;12.590;2023-03-15T10:23:38;100893.31;;;3.74;56.33
78299;BME280;67556;55.656;12.590;2023-03-15T10:26:10;100893.50;;;3.77;55.46
78299;BME280;67556;55.656;12.590;2023-03-15T10:28:39;100901.50;;;3.79;54.48
78299;BME280;67556;55.656;12.590;2023-03-15T10:31:12;100898.16;;;3.81;54.80
78299;BME280;67556;55.656;12.590;2023-03-15T10:33:39;100900.59;;;3.78;55.71
78299;BME280;67556;55.656;12.590;2023-03-15T10:36:13;100912.25;;;3.82;55.72
78299;BME280;67556;55.656;12.590;2023-03-15T10:38:42;100916.75;;;3.97;54.70
78299;BME280;67556;55.656;12.590;2023-03-15T10:41:11;100910.81;;;4.15;54.19
78299;BME280;67556;55.656;12.590;2023-03-15T10:43:39;100924.97;;;4.30;53.44
78299;BME280;67556;55.656;12.590;2023-03-15T10:46:07;100898.81;;;4.48;52.81
78299;BME280;67556;55.656;12.590;2023-03-15T10:48:35;100910.09;;;4.60;49.71
78299;BME280;67556;55.656;12.590;2023-03-15T10:51:05;100922.78;;;4.81;50.45
78299;BME280;67556;55.656;12.590;2023-03-15T10:53:32;100925.84;;;4.73;50.86
78299;BME280;67556;55.656;12.590;2023-03-15T10:56:03;100946.75;;;4.56;52.49
78299;BME280;67556;55.656;12.590;2023-03-15T10:58:39;100911.88;;;4.32;52.76
78299;BME280;67556;55.656;12.590;2023-03-15T11:01:08;100933.03;;;4.61;52.39
78299;BME280;67556;55.656;12.590;2023-03-15T11:03:40;100921.63;;;4.62;52.86
78299;BME280;67556;55.656;12.590;2023-03-15T11:06:18;100928.31;;;4.85;50.38
78299;BME280;67556;55.656;12.590;2023-03-15T11:08:46;100943.22;;;4.70;51.72
78299;BME280;67556;55.656;12.590;2023-03-15T11:11:13;100958.69;;;4.79;50.74
78299;BME280;67556;55.656;12.590;2023-03-15T11:13:40;100955.59;;;4.71;49.57
78299;BME280;67556;55.656;12.590;2023-03-15T11:16:18;100952.19;;;4.59;49.71
78299;BME280;67556;55.656;12.590;2023-03-15T11:18:49;100953.41;;;4.64;50.42
78299;BME280;67556;55.656;12.590;2023-03-15T11:21:17;100951.31;;;4.73;50.52
78299;BME280;67556;55.656;12.590;2023-03-15T11:23:48;100954.69;;;4.70;51.48
78299;BME280;67556;55.656;12.590;2023-03-15T11:26:18;100962.34;;;4.81;51.32
78299;BME280;67556;55.656;12.590;2023-03-15T11:28:48;100953.84;;;4.57;47.87
78299;BME280;67556;55.656;12.590;2023-03-15T11:31:16;100966.25;;;4.72;48.44
78299;BME280;67556;55.656;12.590;2023-03-15T11:33:47;100954.97;;;4.90;47.88
78299;BME280;67556;55.656;12.590;2023-03-15T11:36:20;100961.09;;;5.18;46.39
78299;BME280;67556;55.656;12.590;2023-03-15T11:38:47;100959.59;;;5.38;46.44
78299;BME280;67556;55.656;12.590;2023-03-15T11:41:26;100968.19;;;5.19;47.06
78299;BME280;67556;55.656;12.590;2023-03-15T11:44:01;100961.91;;;5.32;46.71
78299;BME280;67556;55.656;12.590;2023-03-15T11:46:31;100959.00;;;5.28;44.33
78299;BME280;67556;55.656;12.590;2023-03-15T11:49:03;100963.44;;;5.14;44.05
78299;BME280;67556;55.656;12.590;2023-03-15T11:51:35;100960.59;;;5.25;45.05
78299;BME280;67556;55.656;12.590;2023-03-15T11:54:07;100957.22;;;5.58;46.06
78299;BME280;67556;55.656;12.590;2023-03-15T11:56:48;100971.00;;;5.83;45.68
78299;BME280;67556;55.656;12.590;2023-03-15T11:59:17;100973.72;;;5.85;44.71
78299;BME280;67556;55.656;12.590;2023-03-15T12:01:46;100979.00;;;5.85;45.20
78299;BME280;67556;55.656;12.590;2023-03-15T12:04:41;100967.41;;;5.66;46.20
78299;BME280;67556;55.656;12.590;2023-03-15T12:07:30;100972.78;;;5.53;47.06
78299;BME280;67556;55.656;12.590;2023-03-15T12:10:19;100983.88;;;5.62;47.59
78299;BME280;67556;55.656;12.590;2023-03-15T12:12:56;100985.47;;;5.44;47.88
78299;BME280;67556;55.656;12.590;2023-03-15T12:15:44;100994.56;;;5.34;48.66
78299;BME280;67556;55.656;12.590;2023-03-15T12:18:17;100988.66;;;5.23;48.89
78299;BME280;67556;55.656;12.590;2023-03-15T12:20:50;100987.41;;;5.32;48.37
78299;BME280;67556;55.656;12.590;2023-03-15T12:23:28;100998.22;;;5.07;46.54
78299;BME280;67556;55.656;12.590;2023-03-15T12:25:57;100997.78;;;5.29;44.70
78299;BME280;67556;55.656;12.590;2023-03-15T12:28:32;101013.72;;;5.45;44.26
78299;BME280;67556;55.656;12.590;2023-03-15T12:31:02;101007.50;;;5.44;43.92
78299;BME280;67556;55.656;12.590;2023-03-15T12:33:30;101014.91;;;5.35;44.53
78299;BME280;67556;55.656;12.590;2023-03-15T12:35:59;101007.03;;;5.66;44.37
78299;BME280;67556;55.656;12.590;2023-03-15T12:38:35;101012.75;;;5.74;43.39
78299;BME280;67556;55.656;12.590;2023-03-15T12:41:06;101002.91;;;5.86;43.54
78299;BME280;67556;55.656;12.590;2023-03-15T12:43:39;101026.06;;;5.75;44.66
78299;BME280;67556;55.656;12.590;2023-03-15T12:46:55;101014.75;;;6.24;45.11
78299;BME280;67556;55.656;12.590;2023-03-15T12:49:28;101029.72;;;6.40;43.51
78299;BME280;67556;55.656;12.590;2023-03-15T12:51:57;101030.19;;;6.16;43.23
78299;BME280;67556;55.656;12.590;2023-03-15T12:54:30;101019.59;;;6.80;43.29
78299;BME280;67556;55.656;12.590;2023-03-15T12:56:59;101033.06;;;7.01;40.34
78299;BME280;67556;55.656;12.590;2023-03-15T12:59:39;101024.44;;;7.05;40.96